SBSV/SSA METAR and TAF weather

Enter ICAO airport designator
Station Type Date Time Source
SBSV METAR 2022/06/30 14:00 UTC NOAA

SBSV 301400Z 11008KT 050V150 9999 SCT020 FEW025TCU 28/21 Q1017


Station Type Date Time Source
SBSV Decoded METAR 2022/06/30 14:00 UTC NOAA

Salvador Aeroporto , Brazil (SBSV) 12-54S 038-20W 13M
Jun 30, 2022 - 10:00 AM EDT / 2022.06.30 1400 UTC
Wind: from the ESE (110 degrees) at 9 MPH (8 KT) (direction variable):0
Visibility: greater than 7 mile(s):0
Sky conditions: partly cloudy
Weather: Towering cumulus clouds observed
Temperature: 82 F (28 C)
Dew Point: 69 F (21 C)
Relative Humidity: 65%
Pressure (altimeter): 30.03 in. Hg (1017 hPa)
ob: SBSV 301400Z 11008KT 050V150 9999 SCT020 FEW025TCU 28/21 Q1017
cycle: 14

Station Type Date Time Source
SBSV TAF 2022/06/30 18:58 UTC NOAA

TAF SBSV 301350Z 3018/0118 16008KT 9999 SCT020 TN23/0109Z TX28/0116Z
BECMG 0106/0108 SCT020 FEW023TCU PROB30 0108/0112 BKN018 FEW023TCU
BECMG 0113/0115 15015KT
RMK PGE

Example: see airport list